sensor_id;sensor_type;location;lat;lon;timestamp;P1;durP1;ratioP1;P2;durP2;ratioP2
25479;SDS011;13393;49.378;8.686;2023-02-28T00:00:06;2.60;;;2.20;;
25479;SDS011;13393;49.378;8.686;2023-02-28T00:02:35;3.05;;;2.25;;
25479;SDS011;13393;49.378;8.686;2023-02-28T00:05:01;2.88;;;2.08;;
25479;SDS011;13393;49.378;8.686;2023-02-28T00:07:28;2.13;;;1.75;;
25479;SDS011;13393;49.378;8.686;2023-02-28T00:09:54;3.90;;;2.60;;
25479;SDS011;13393;49.378;8.686;2023-02-28T00:12:22;2.80;;;2.50;;
25479;SDS011;13393;49.378;8.686;2023-02-28T00:14:49;3.28;;;2.22;;
25479;SDS011;13393;49.378;8.686;2023-02-28T00:17:15;3.72;;;2.17;;
25479;SDS011;13393;49.378;8.686;2023-02-28T00:19:42;3.38;;;2.22;;
25479;SDS011;13393;49.378;8.686;2023-02-28T00:22:09;5.07;;;2.60;;
25479;SDS011;13393;49.378;8.686;2023-02-28T00:24:35;5.38;;;2.50;;
25479;SDS011;13393;49.378;8.686;2023-02-28T00:27:02;3.45;;;2.08;;
25479;SDS011;13393;49.378;8.686;2023-02-28T00:29:29;4.03;;;2.85;;
25479;SDS011;13393;49.378;8.686;2023-02-28T00:31:56;4.47;;;2.28;;
25479;SDS011;13393;49.378;8.686;2023-02-28T00:34:22;3.10;;;2.63;;
25479;SDS011;13393;49.378;8.686;2023-02-28T00:36:49;3.92;;;2.47;;
25479;SDS011;13393;49.378;8.686;2023-02-28T00:39:15;2.67;;;2.28;;
25479;SDS011;13393;49.378;8.686;2023-02-28T00:41:42;2.80;;;2.22;;
25479;SDS011;13393;49.378;8.686;2023-02-28T00:44:08;3.38;;;2.58;;
25479;SDS011;13393;49.378;8.686;2023-02-28T00:46:36;4.28;;;2.35;;
25479;SDS011;13393;49.378;8.686;2023-02-28T00:49:02;4.03;;;2.83;;
25479;SDS011;13393;49.378;8.686;2023-02-28T00:51:29;4.28;;;2.50;;
25479;SDS011;13393;49.378;8.686;2023-02-28T00:53:55;3.63;;;2.47;;
25479;SDS011;13393;49.378;8.686;2023-02-28T00:56:21;3.30;;;2.17;;
25479;SDS011;13393;49.378;8.686;2023-02-28T00:58:48;3.28;;;2.75;;
25479;SDS011;13393;49.378;8.686;2023-02-28T01:01:14;5.70;;;2.67;;
25479;SDS011;13393;49.378;8.686;2023-02-28T01:03:42;2.50;;;2.13;;
25479;SDS011;13393;49.378;8.686;2023-02-28T01:06:08;6.07;;;2.92;;
25479;SDS011;13393;49.378;8.686;2023-02-28T01:08:34;4.28;;;2.47;;
25479;SDS011;13393;49.378;8.686;2023-02-28T01:11:07;4.57;;;2.90;;
25479;SDS011;13393;49.378;8.686;2023-02-28T01:13:33;2.40;;;2.20;;
25479;SDS011;13393;49.378;8.686;2023-02-28T01:16:00;3.45;;;2.20;;
25479;SDS011;13393;49.378;8.686;2023-02-28T01:18:26;4.68;;;2.50;;
25479;SDS011;13393;49.378;8.686;2023-02-28T01:20:54;3.92;;;2.60;;
25479;SDS011;13393;49.378;8.686;2023-02-28T01:23:21;2.53;;;2.33;;
25479;SDS011;13393;49.378;8.686;2023-02-28T01:25:48;7.05;;;2.72;;
25479;SDS011;13393;49.378;8.686;2023-02-28T01:28:15;3.97;;;2.90;;
25479;SDS011;13393;49.378;8.686;2023-02-28T01:30:41;3.35;;;2.50;;
25479;SDS011;13393;49.378;8.686;2023-02-28T01:33:08;3.72;;;2.85;;
25479;SDS011;13393;49.378;8.686;2023-02-28T01:35:34;5.10;;;2.60;;
25479;SDS011;13393;49.378;8.686;2023-02-28T01:38:02;4.85;;;3.08;;
25479;SDS011;13393;49.378;8.686;2023-02-28T01:40:29;4.05;;;2.47;;
25479;SDS011;13393;49.378;8.686;2023-02-28T01:42:55;3.20;;;2.67;;
25479;SDS011;13393;49.378;8.686;2023-02-28T01:45:22;4.78;;;2.72;;
25479;SDS011;13393;49.378;8.686;2023-02-28T01:47:50;4.65;;;3.15;;
25479;SDS011;13393;49.378;8.686;2023-02-28T01:50:19;4.72;;;2.83;;
25479;SDS011;13393;49.378;8.686;2023-02-28T01:52:46;4.28;;;2.75;;
25479;SDS011;13393;49.378;8.686;2023-02-28T01:55:14;3.05;;;2.55;;
25479;SDS011;13393;49.378;8.686;2023-02-28T01:57:41;3.78;;;2.53;;
25479;SDS011;13393;49.378;8.686;2023-02-28T02:00:09;4.63;;;2.92;;
25479;SDS011;13393;49.378;8.686;2023-02-28T02:02:38;3.65;;;2.85;;
25479;SDS011;13393;49.378;8.686;2023-02-28T02:05:05;4.90;;;3.17;;
25479;SDS011;13393;49.378;8.686;2023-02-28T02:07:33;4.68;;;2.80;;
25479;SDS011;13393;49.378;8.686;2023-02-28T02:10:01;3.53;;;2.88;;
25479;SDS011;13393;49.378;8.686;2023-02-28T02:12:32;3.80;;;2.65;;
25479;SDS011;13393;49.378;8.686;2023-02-28T02:15:03;4.28;;;3.08;;
25479;SDS011;13393;49.378;8.686;2023-02-28T02:17:34;3.55;;;2.95;;
25479;SDS011;13393;49.378;8.686;2023-02-28T02:20:18;5.18;;;3.00;;
25479;SDS011;13393;49.378;8.686;2023-02-28T02:25:33;5.68;;;3.58;;
25479;SDS011;13393;49.378;8.686;2023-02-28T02:28:10;6.00;;;3.15;;
25479;SDS011;13393;49.378;8.686;2023-02-28T02:30:54;5.32;;;3.40;;
25479;SDS011;13393;49.378;8.686;2023-02-28T02:36:14;4.18;;;2.97;;
25479;SDS011;13393;49.378;8.686;2023-02-28T02:38:46;3.90;;;3.00;;
25479;SDS011;13393;49.378;8.686;2023-02-28T02:41:14;5.28;;;3.30;;
25479;SDS011;13393;49.378;8.686;2023-02-28T02:43:44;4.18;;;3.25;;
25479;SDS011;13393;49.378;8.686;2023-02-28T02:46:13;5.80;;;3.50;;
25479;SDS011;13393;49.378;8.686;2023-02-28T02:48:41;4.30;;;3.17;;
25479;SDS011;13393;49.378;8.686;2023-02-28T02:51:10;4.47;;;3.42;;
25479;SDS011;13393;49.378;8.686;2023-02-28T02:53:41;5.55;;;3.25;;
25479;SDS011;13393;49.378;8.686;2023-02-28T02:56:08;5.05;;;3.55;;
25479;SDS011;13393;49.378;8.686;2023-02-28T02:58:35;4.50;;;3.13;;
25479;SDS011;13393;49.378;8.686;2023-02-28T03:01:07;5.72;;;3.47;;
25479;SDS011;13393;49.378;8.686;2023-02-28T03:03:34;4.20;;;3.20;;
25479;SDS011;13393;49.378;8.686;2023-02-28T03:06:01;5.05;;;3.10;;
25479;SDS011;13393;49.378;8.686;2023-02-28T03:08:28;4.25;;;3.15;;
25479;SDS011;13393;49.378;8.686;2023-02-28T03:10:57;5.88;;;3.58;;
25479;SDS011;13393;49.378;8.686;2023-02-28T03:13:32;4.53;;;3.30;;
25479;SDS011;13393;49.378;8.686;2023-02-28T03:16:05;7.05;;;3.53;;
25479;SDS011;13393;49.378;8.686;2023-02-28T03:18:39;6.70;;;3.88;;
25479;SDS011;13393;49.378;8.686;2023-02-28T03:21:10;5.63;;;3.13;;
25479;SDS011;13393;49.378;8.686;2023-02-28T03:23:42;5.57;;;3.65;;
25479;SDS011;13393;49.378;8.686;2023-02-28T03:26:13;4.93;;;3.67;;
25479;SDS011;13393;49.378;8.686;2023-02-28T03:28:42;4.35;;;3.45;;
25479;SDS011;13393;49.378;8.686;2023-02-28T03:31:12;6.85;;;3.88;;
25479;SDS011;13393;49.378;8.686;2023-02-28T03:33:42;6.43;;;3.80;;
25479;SDS011;13393;49.378;8.686;2023-02-28T03:36:10;7.55;;;3.95;;
25479;SDS011;13393;49.378;8.686;2023-02-28T03:38:39;6.38;;;3.70;;
25479;SDS011;13393;49.378;8.686;2023-02-28T03:41:09;5.25;;;3.75;;
25479;SDS011;13393;49.378;8.686;2023-02-28T03:43:40;4.55;;;3.80;;
25479;SDS011;13393;49.378;8.686;2023-02-28T03:46:08;5.88;;;3.63;;
25479;SDS011;13393;49.378;8.686;2023-02-28T03:48:38;4.28;;;3.88;;
25479;SDS011;13393;49.378;8.686;2023-02-28T03:51:05;6.72;;;3.80;;
25479;SDS011;13393;49.378;8.686;2023-02-28T03:53:33;7.45;;;4.22;;
25479;SDS011;13393;49.378;8.686;2023-02-28T03:56:03;5.55;;;3.65;;
25479;SDS011;13393;49.378;8.686;2023-02-28T03:58:32;5.63;;;4.45;;
25479;SDS011;13393;49.378;8.686;2023-02-28T04:01:03;4.82;;;4.13;;
25479;SDS011;13393;49.378;8.686;2023-02-28T04:03:33;6.60;;;4.13;;
25479;SDS011;13393;49.378;8.686;2023-02-28T04:05:59;4.78;;;3.83;;
25479;SDS011;13393;49.378;8.686;2023-02-28T04:08:26;5.20;;;3.67;;
25479;SDS011;13393;49.378;8.686;2023-02-28T04:10:54;6.82;;;4.07;;
25479;SDS011;13393;49.378;8.686;2023-02-28T04:13:22;8.27;;;4.53;;
25479;SDS011;13393;49.378;8.686;2023-02-28T04:15:48;5.05;;;3.97;;
25479;SDS011;13393;49.378;8.686;2023-02-28T04:18:16;4.88;;;3.97;;
25479;SDS011;13393;49.378;8.686;2023-02-28T04:20:42;4.70;;;4.03;;
25479;SDS011;13393;49.378;8.686;2023-02-28T04:23:08;5.55;;;4.53;;
25479;SDS011;13393;49.378;8.686;2023-02-28T04:25:35;5.40;;;4.03;;
25479;SDS011;13393;49.378;8.686;2023-02-28T04:28:01;8.40;;;4.80;;
25479;SDS011;13393;49.378;8.686;2023-02-28T04:30:27;7.50;;;4.60;;
25479;SDS011;13393;49.378;8.686;2023-02-28T04:32:54;5.80;;;4.25;;
25479;SDS011;13393;49.378;8.686;2023-02-28T04:35:22;8.18;;;4.50;;
25479;SDS011;13393;49.378;8.686;2023-02-28T04:37:48;7.30;;;4.60;;
25479;SDS011;13393;49.378;8.686;2023-02-28T04:40:15;6.95;;;4.82;;
25479;SDS011;13393;49.378;8.686;2023-02-28T04:42:41;4.93;;;3.92;;
25479;SDS011;13393;49.378;8.686;2023-02-28T04:45:08;5.68;;;4.28;;
25479;SDS011;13393;49.378;8.686;2023-02-28T04:47:36;6.55;;;4.40;;
25479;SDS011;13393;49.378;8.686;2023-02-28T04:50:02;4.90;;;3.92;;
25479;SDS011;13393;49.378;8.686;2023-02-28T04:52:30;6.13;;;4.30;;
25479;SDS011;13393;49.378;8.686;2023-02-28T04:54:57;6.13;;;4.25;;
25479;SDS011;13393;49.378;8.686;2023-02-28T04:57:23;7.07;;;4.57;;
25479;SDS011;13393;49.378;8.686;2023-02-28T04:59:49;5.97;;;4.50;;
25479;SDS011;13393;49.378;8.686;2023-02-28T05:02:15;7.43;;;4.20;;
25479;SDS011;13393;49.378;8.686;2023-02-28T05:04:42;7.75;;;4.45;;
25479;SDS011;13393;49.378;8.686;2023-02-28T05:07:08;6.10;;;4.30;;
25479;SDS011;13393;49.378;8.686;2023-02-28T05:09:36;9.35;;;4.50;;
25479;SDS011;13393;49.378;8.686;2023-02-28T05:12:02;7.93;;;4.35;;
25479;SDS011;13393;49.378;8.686;2023-02-28T05:14:28;6.90;;;4.35;;
25479;SDS011;13393;49.378;8.686;2023-02-28T05:16:55;5.63;;;4.10;;
25479;SDS011;13393;49.378;8.686;2023-02-28T05:19:21;7.05;;;4.40;;
25479;SDS011;13393;49.378;8.686;2023-02-28T05:21:49;6.03;;;4.38;;
25479;SDS011;13393;49.378;8.686;2023-02-28T05:24:16;6.85;;;4.60;;
25479;SDS011;13393;49.378;8.686;2023-02-28T05:26:49;5.78;;;4.30;;
25479;SDS011;13393;49.378;8.686;2023-02-28T05:29:16;4.80;;;4.13;;
25479;SDS011;13393;49.378;8.686;2023-02-28T05:31:42;8.43;;;4.15;;
25479;SDS011;13393;49.378;8.686;2023-02-28T05:34:09;6.35;;;4.10;;
25479;SDS011;13393;49.378;8.686;2023-02-28T05:36:36;4.78;;;3.92;;
25479;SDS011;13393;49.378;8.686;2023-02-28T05:39:02;5.28;;;4.00;;
25479;SDS011;13393;49.378;8.686;2023-02-28T05:41:29;6.13;;;4.20;;
25479;SDS011;13393;49.378;8.686;2023-02-28T05:43:56;6.47;;;4.47;;
25479;SDS011;13393;49.378;8.686;2023-02-28T05:46:23;6.03;;;4.40;;
25479;SDS011;13393;49.378;8.686;2023-02-28T05:48:49;8.38;;;4.72;;
25479;SDS011;13393;49.378;8.686;2023-02-28T05:51:16;6.18;;;4.47;;
25479;SDS011;13393;49.378;8.686;2023-02-28T05:53:43;7.93;;;4.88;;
25479;SDS011;13393;49.378;8.686;2023-02-28T05:56:09;7.57;;;4.60;;
25479;SDS011;13393;49.378;8.686;2023-02-28T05:58:35;8.07;;;4.60;;
25479;SDS011;13393;49.378;8.686;2023-02-28T06:03:44;8.85;;;5.85;;
25479;SDS011;13393;49.378;8.686;2023-02-28T06:06:11;6.25;;;4.88;;
25479;SDS011;13393;49.378;8.686;2023-02-28T06:08:37;10.60;;;4.72;;
25479;SDS011;13393;49.378;8.686;2023-02-28T06:11:03;41.90;;;21.08;;
25479;SDS011;13393;49.378;8.686;2023-02-28T06:13:30;16.15;;;9.45;;
25479;SDS011;13393;49.378;8.686;2023-02-28T06:15:56;8.10;;;5.40;;
25479;SDS011;13393;49.378;8.686;2023-02-28T06:18:22;7.53;;;4.65;;
25479;SDS011;13393;49.378;8.686;2023-02-28T06:20:53;7.28;;;4.95;;
25479;SDS011;13393;49.378;8.686;2023-02-28T06:23:20;5.38;;;4.55;;
25479;SDS011;13393;49.378;8.686;2023-02-28T06:25:47;5.32;;;4.18;;
25479;SDS011;13393;49.378;8.686;2023-02-28T06:28:14;5.57;;;4.28;;
25479;SDS011;13393;49.378;8.686;2023-02-28T06:30:40;7.43;;;5.07;;
25479;SDS011;13393;49.378;8.686;2023-02-28T06:33:07;7.88;;;4.95;;
25479;SDS011;13393;49.378;8.686;2023-02-28T06:35:33;9.52;;;4.95;;
25479;SDS011;13393;49.378;8.686;2023-02-28T06:38:01;6.00;;;4.53;;
25479;SDS011;13393;49.378;8.686;2023-02-28T06:40:28;7.80;;;4.50;;
25479;SDS011;13393;49.378;8.686;2023-02-28T06:42:56;8.45;;;5.10;;
25479;SDS011;13393;49.378;8.686;2023-02-28T06:45:23;6.38;;;4.22;;
25479;SDS011;13393;49.378;8.686;2023-02-28T06:47:51;6.00;;;4.80;;
25479;SDS011;13393;49.378;8.686;2023-02-28T06:50:17;6.80;;;4.78;;
25479;SDS011;13393;49.378;8.686;2023-02-28T06:52:45;8.13;;;5.15;;
25479;SDS011;13393;49.378;8.686;2023-02-28T06:55:13;6.38;;;4.57;;
25479;SDS011;13393;49.378;8.686;2023-02-28T06:57:39;8.50;;;5.30;;
25479;SDS011;13393;49.378;8.686;2023-02-28T07:00:06;7.18;;;5.07;;
25479;SDS011;13393;49.378;8.686;2023-02-28T07:02:33;8.45;;;5.18;;
25479;SDS011;13393;49.378;8.686;2023-02-28T07:04:59;6.05;;;4.72;;
25479;SDS011;13393;49.378;8.686;2023-02-28T07:07:25;7.68;;;4.78;;
25479;SDS011;13393;49.378;8.686;2023-02-28T07:09:52;5.90;;;4.50;;
25479;SDS011;13393;49.378;8.686;2023-02-28T07:12:19;8.90;;;5.30;;
25479;SDS011;13393;49.378;8.686;2023-02-28T07:14:46;6.65;;;5.28;;
25479;SDS011;13393;49.378;8.686;2023-02-28T07:17:12;6.07;;;4.90;;
25479;SDS011;13393;49.378;8.686;2023-02-28T07:19:38;8.07;;;4.68;;
25479;SDS011;13393;49.378;8.686;2023-02-28T07:22:05;7.53;;;5.10;;
25479;SDS011;13393;49.378;8.686;2023-02-28T07:24:31;5.70;;;4.78;;
25479;SDS011;13393;49.378;8.686;2023-02-28T07:26:57;8.10;;;5.03;;
25479;SDS011;13393;49.378;8.686;2023-02-28T07:29:25;6.68;;;4.95;;
25479;SDS011;13393;49.378;8.686;2023-02-28T07:31:51;7.32;;;5.18;;
25479;SDS011;13393;49.378;8.686;2023-02-28T07:34:18;6.03;;;5.05;;
25479;SDS011;13393;49.378;8.686;2023-02-28T07:36:44;8.75;;;5.28;;
25479;SDS011;13393;49.378;8.686;2023-02-28T07:39:11;7.85;;;5.30;;
25479;SDS011;13393;49.378;8.686;2023-02-28T07:41:37;8.02;;;5.75;;
25479;SDS011;13393;49.378;8.686;2023-02-28T07:44:08;6.82;;;5.15;;
25479;SDS011;13393;49.378;8.686;2023-02-28T07:46:36;7.40;;;4.97;;
25479;SDS011;13393;49.378;8.686;2023-02-28T07:49:02;7.45;;;5.07;;
25479;SDS011;13393;49.378;8.686;2023-02-28T07:51:29;6.85;;;4.95;;
25479;SDS011;13393;49.378;8.686;2023-02-28T07:53:55;7.30;;;5.30;;
25479;SDS011;13393;49.378;8.686;2023-02-28T07:56:22;8.20;;;5.38;;
25479;SDS011;13393;49.378;8.686;2023-02-28T07:58:48;8.40;;;5.70;;
25479;SDS011;13393;49.378;8.686;2023-02-28T08:01:16;5.85;;;4.88;;
25479;SDS011;13393;49.378;8.686;2023-02-28T08:03:45;8.30;;;5.90;;
25479;SDS011;13393;49.378;8.686;2023-02-28T08:06:15;9.07;;;5.50;;
25479;SDS011;13393;49.378;8.686;2023-02-28T08:08:41;7.70;;;5.47;;
25479;SDS011;13393;49.378;8.686;2023-02-28T08:11:09;6.30;;;4.55;;
25479;SDS011;13393;49.378;8.686;2023-02-28T08:13:35;10.02;;;5.63;;
25479;SDS011;13393;49.378;8.686;2023-02-28T08:16:02;9.57;;;5.55;;
25479;SDS011;13393;49.378;8.686;2023-02-28T08:18:28;7.65;;;5.57;;
25479;SDS011;13393;49.378;8.686;2023-02-28T08:20:56;8.60;;;5.63;;
25479;SDS011;13393;49.378;8.686;2023-02-28T08:23:22;8.05;;;5.85;;
25479;SDS011;13393;49.378;8.686;2023-02-28T08:25:52;8.82;;;5.75;;
25479;SDS011;13393;49.378;8.686;2023-02-28T08:28:19;8.45;;;6.20;;
25479;SDS011;13393;49.378;8.686;2023-02-28T08:30:45;6.25;;;5.00;;
25479;SDS011;13393;49.378;8.686;2023-02-28T08:33:11;7.60;;;5.50;;
25479;SDS011;13393;49.378;8.686;2023-02-28T08:35:38;8.00;;;5.70;;
25479;SDS011;13393;49.378;8.686;2023-02-28T08:38:05;7.35;;;6.00;;
25479;SDS011;13393;49.378;8.686;2023-02-28T08:40:32;8.23;;;5.75;;
25479;SDS011;13393;49.378;8.686;2023-02-28T08:42:58;8.25;;;6.05;;
25479;SDS011;13393;49.378;8.686;2023-02-28T08:45:25;7.95;;;5.72;;
25479;SDS011;13393;49.378;8.686;2023-02-28T08:47:52;8.32;;;5.93;;
25479;SDS011;13393;49.378;8.686;2023-02-28T08:50:19;8.50;;;6.03;;
25479;SDS011;13393;49.378;8.686;2023-02-28T08:52:46;8.20;;;5.90;;
25479;SDS011;13393;49.378;8.686;2023-02-28T08:55:13;7.72;;;5.40;;
25479;SDS011;13393;49.378;8.686;2023-02-28T08:57:40;10.18;;;5.80;;
25479;SDS011;13393;49.378;8.686;2023-02-28T09:00:07;8.38;;;5.82;;
25479;SDS011;13393;49.378;8.686;2023-02-28T09:02:35;7.88;;;5.45;;
25479;SDS011;13393;49.378;8.686;2023-02-28T09:05:02;10.63;;;6.25;;
25479;SDS011;13393;49.378;8.686;2023-02-28T09:07:28;7.32;;;5.68;;
25479;SDS011;13393;49.378;8.686;2023-02-28T09:09:55;9.73;;;6.45;;
25479;SDS011;13393;49.378;8.686;2023-02-28T09:12:24;9.65;;;6.40;;
25479;SDS011;13393;49.378;8.686;2023-02-28T09:14:51;7.13;;;5.68;;
25479;SDS011;13393;49.378;8.686;2023-02-28T09:17:17;7.63;;;5.43;;
25479;SDS011;13393;49.378;8.686;2023-02-28T09:19:44;8.95;;;5.90;;
25479;SDS011;13393;49.378;8.686;2023-02-28T09:22:10;9.27;;;5.80;;
25479;SDS011;13393;49.378;8.686;2023-02-28T09:24:37;10.23;;;6.18;;
25479;SDS011;13393;49.378;8.686;2023-02-28T09:27:04;7.00;;;5.57;;
25479;SDS011;13393;49.378;8.686;2023-02-28T09:29:32;7.22;;;5.72;;
25479;SDS011;13393;49.378;8.686;2023-02-28T09:31:59;7.95;;;5.80;;
25479;SDS011;13393;49.378;8.686;2023-02-28T09:34:26;7.97;;;5.95;;
25479;SDS011;13393;49.378;8.686;2023-02-28T09:36:52;11.35;;;5.85;;
25479;SDS011;13393;49.378;8.686;2023-02-28T09:39:19;8.02;;;6.10;;
25479;SDS011;13393;49.378;8.686;2023-02-28T09:41:47;11.48;;;6.50;;
25479;SDS011;13393;49.378;8.686;2023-02-28T09:44:16;7.22;;;5.72;;
25479;SDS011;13393;49.378;8.686;2023-02-28T09:46:46;8.63;;;6.22;;
25479;SDS011;13393;49.378;8.686;2023-02-28T09:49:15;7.55;;;5.90;;
25479;SDS011;13393;49.378;8.686;2023-02-28T09:51:45;9.25;;;6.60;;
25479;SDS011;13393;49.378;8.686;2023-02-28T09:54:14;7.30;;;6.00;;
25479;SDS011;13393;49.378;8.686;2023-02-28T09:56:44;7.85;;;6.03;;
25479;SDS011;13393;49.378;8.686;2023-02-28T09:59:13;7.85;;;5.75;;
25479;SDS011;13393;49.378;8.686;2023-02-28T10:01:43;9.90;;;6.93;;
25479;SDS011;13393;49.378;8.686;2023-02-28T10:04:16;9.25;;;6.57;;
25479;SDS011;13393;49.378;8.686;2023-02-28T10:06:44;8.88;;;6.95;;
25479;SDS011;13393;49.378;8.686;2023-02-28T10:09:13;9.15;;;6.85;;
25479;SDS011;13393;49.378;8.686;2023-02-28T10:11:42;9.25;;;6.85;;
25479;SDS011;13393;49.378;8.686;2023-02-28T10:14:11;9.15;;;6.28;;
25479;SDS011;13393;49.378;8.686;2023-02-28T10:16:40;7.57;;;6.15;;
25479;SDS011;13393;49.378;8.686;2023-02-28T10:19:11;10.20;;;6.57;;
25479;SDS011;13393;49.378;8.686;2023-02-28T10:21:42;9.25;;;6.90;;
25479;SDS011;13393;49.378;8.686;2023-02-28T10:24:15;8.60;;;6.22;;
25479;SDS011;13393;49.378;8.686;2023-02-28T10:26:45;12.55;;;6.63;;
25479;SDS011;13393;49.378;8.686;2023-02-28T10:29:12;10.13;;;6.78;;
25479;SDS011;13393;49.378;8.686;2023-02-28T10:31:38;8.85;;;6.72;;
25479;SDS011;13393;49.378;8.686;2023-02-28T10:34:05;8.13;;;6.38;;
25479;SDS011;13393;49.378;8.686;2023-02-28T10:36:32;9.10;;;7.00;;
25479;SDS011;13393;49.378;8.686;2023-02-28T10:38:59;9.60;;;7.28;;
25479;SDS011;13393;49.378;8.686;2023-02-28T10:41:27;9.10;;;7.15;;
25479;SDS011;13393;49.378;8.686;2023-02-28T10:43:53;9.00;;;7.18;;
25479;SDS011;13393;49.378;8.686;2023-02-28T10:46:37;7.93;;;6.78;;
25479;SDS011;13393;49.378;8.686;2023-02-28T10:49:06;9.02;;;6.80;;
25479;SDS011;13393;49.378;8.686;2023-02-28T10:51:38;8.85;;;7.18;;
25479;SDS011;13393;49.378;8.686;2023-02-28T10:54:10;11.75;;;6.82;;
25479;SDS011;13393;49.378;8.686;2023-02-28T10:56:40;11.00;;;6.63;;
25479;SDS011;13393;49.378;8.686;2023-02-28T10:59:22;8.77;;;6.70;;
25479;SDS011;13393;49.378;8.686;2023-02-28T11:01:49;9.20;;;6.28;;
25479;SDS011;13393;49.378;8.686;2023-02-28T11:04:18;12.93;;;7.47;;
25479;SDS011;13393;49.378;8.686;2023-02-28T11:06:46;8.70;;;6.97;;
25479;SDS011;13393;49.378;8.686;2023-02-28T11:09:18;9.35;;;7.13;;
25479;SDS011;13393;49.378;8.686;2023-02-28T11:11:46;8.57;;;6.57;;
25479;SDS011;13393;49.378;8.686;2023-02-28T11:14:17;10.55;;;6.55;;
25479;SDS011;13393;49.378;8.686;2023-02-28T11:16:45;12.88;;;6.88;;
25479;SDS011;13393;49.378;8.686;2023-02-28T11:19:16;8.27;;;6.25;;
25479;SDS011;13393;49.378;8.686;2023-02-28T11:21:47;11.38;;;7.05;;
25479;SDS011;13393;49.378;8.686;2023-02-28T11:24:15;9.48;;;6.60;;
25479;SDS011;13393;49.378;8.686;2023-02-28T11:26:46;9.80;;;6.72;;
25479;SDS011;13393;49.378;8.686;2023-02-28T11:29:17;7.10;;;6.10;;
25479;SDS011;13393;49.378;8.686;2023-02-28T11:31:57;10.00;;;6.60;;
25479;SDS011;13393;49.378;8.686;2023-02-28T11:34:27;8.65;;;6.53;;
25479;SDS011;13393;49.378;8.686;2023-02-28T11:36:53;9.40;;;6.75;;
25479;SDS011;13393;49.378;8.686;2023-02-28T11:39:21;10.98;;;7.57;;
25479;SDS011;13393;49.378;8.686;2023-02-28T11:41:54;8.48;;;6.88;;
25479;SDS011;13393;49.378;8.686;2023-02-28T11:44:23;9.52;;;6.88;;
25479;SDS011;13393;49.378;8.686;2023-02-28T11:46:56;8.20;;;7.03;;
25479;SDS011;13393;49.378;8.686;2023-02-28T11:49:35;8.65;;;6.85;;
25479;SDS011;13393;49.378;8.686;2023-02-28T11:52:05;9.30;;;6.70;;
25479;SDS011;13393;49.378;8.686;2023-02-28T11:54:37;12.88;;;10.20;;
25479;SDS011;13393;49.378;8.686;2023-02-28T11:57:12;8.55;;;6.97;;
25479;SDS011;13393;49.378;8.686;2023-02-28T11:59:46;10.88;;;7.40;;
25479;SDS011;13393;49.378;8.686;2023-02-28T12:02:20;8.25;;;6.80;;
25479;SDS011;13393;49.378;8.686;2023-02-28T12:04:52;7.80;;;6.90;;
25479;SDS011;13393;49.378;8.686;2023-02-28T12:07:22;9.48;;;7.35;;
25479;SDS011;13393;49.378;8.686;2023-02-28T12:09:54;11.73;;;8.55;;
25479;SDS011;13393;49.378;8.686;2023-02-28T12:12:26;17.90;;;13.43;;
25479;SDS011;13393;49.378;8.686;2023-02-28T12:17:48;10.82;;;7.22;;
25479;SDS011;13393;49.378;8.686;2023-02-28T12:20:17;9.23;;;7.28;;
25479;SDS011;13393;49.378;8.686;2023-02-28T12:22:49;8.52;;;6.50;;
25479;SDS011;13393;49.378;8.686;2023-02-28T12:28:17;9.13;;;7.20;;
25479;SDS011;13393;49.378;8.686;2023-02-28T12:30:49;10.25;;;7.43;;
25479;SDS011;13393;49.378;8.686;2023-02-28T12:33:16;8.18;;;7.05;;
25479;SDS011;13393;49.378;8.686;2023-02-28T12:35:46;9.38;;;7.32;;
25479;SDS011;13393;49.378;8.686;2023-02-28T12:38:14;8.82;;;7.30;;
25479;SDS011;13393;49.378;8.686;2023-02-28T12:40:45;9.05;;;7.95;;
25479;SDS011;13393;49.378;8.686;2023-02-28T12:43:13;9.82;;;7.32;;
25479;SDS011;13393;49.378;8.686;2023-02-28T12:45:43;8.73;;;7.40;;
25479;SDS011;13393;49.378;8.686;2023-02-28T12:48:11;8.60;;;7.22;;
25479;SDS011;13393;49.378;8.686;2023-02-28T12:50:40;7.95;;;7.05;;
25479;SDS011;13393;49.378;8.686;2023-02-28T12:53:08;8.88;;;7.28;;
25479;SDS011;13393;49.378;8.686;2023-02-28T12:55:38;9.68;;;7.70;;
25479;SDS011;13393;49.378;8.686;2023-02-28T12:58:08;9.73;;;7.03;;
25479;SDS011;13393;49.378;8.686;2023-02-28T13:00:38;10.15;;;7.82;;
25479;SDS011;13393;49.378;8.686;2023-02-28T13:03:27;10.77;;;7.85;;
25479;SDS011;13393;49.378;8.686;2023-02-28T13:06:05;10.02;;;7.90;;
25479;SDS011;13393;49.378;8.686;2023-02-28T13:08:42;8.82;;;7.45;;
25479;SDS011;13393;49.378;8.686;2023-02-28T13:11:24;8.20;;;7.20;;
25479;SDS011;13393;49.378;8.686;2023-02-28T13:13:56;9.05;;;7.38;;
25479;SDS011;13393;49.378;8.686;2023-02-28T13:16:23;8.63;;;7.45;;
25479;SDS011;13393;49.378;8.686;2023-02-28T13:18:51;12.10;;;7.93;;
25479;SDS011;13393;49.378;8.686;2023-02-28T13:21:24;9.13;;;7.40;;
25479;SDS011;13393;49.378;8.686;2023-02-28T13:23:56;8.75;;;7.85;;
25479;SDS011;13393;49.378;8.686;2023-02-28T13:26:34;10.82;;;8.10;;
25479;SDS011;13393;49.378;8.686;2023-02-28T13:29:21;9.98;;;7.90;;
25479;SDS011;13393;49.378;8.686;2023-02-28T13:34:39;9.48;;;8.48;;
25479;SDS011;13393;49.378;8.686;2023-02-28T13:37:32;9.88;;;7.68;;
25479;SDS011;13393;49.378;8.686;2023-02-28T13:39:59;11.93;;;8.00;;
25479;SDS011;13393;49.378;8.686;2023-02-28T13:42:33;12.10;;;9.10;;
25479;SDS011;13393;49.378;8.686;2023-02-28T13:45:21;10.15;;;8.02;;
25479;SDS011;13393;49.378;8.686;2023-02-28T13:47:51;10.23;;;7.50;;
25479;SDS011;13393;49.378;8.686;2023-02-28T13:50:24;8.70;;;7.55;;
25479;SDS011;13393;49.378;8.686;2023-02-28T13:52:56;14.02;;;9.63;;
25479;SDS011;13393;49.378;8.686;2023-02-28T13:55:27;9.32;;;7.93;;
25479;SDS011;13393;49.378;8.686;2023-02-28T13:57:58;9.40;;;7.93;;
25479;SDS011;13393;49.378;8.686;2023-02-28T14:00:33;9.52;;;8.52;;
25479;SDS011;13393;49.378;8.686;2023-02-28T14:03:07;8.35;;;7.35;;
25479;SDS011;13393;49.378;8.686;2023-02-28T14:05:38;11.57;;;7.35;;
25479;SDS011;13393;49.378;8.686;2023-02-28T14:08:06;10.48;;;8.10;;
25479;SDS011;13393;49.378;8.686;2023-02-28T14:10:35;9.25;;;7.90;;
25479;SDS011;13393;49.378;8.686;2023-02-28T14:13:03;11.30;;;7.70;;
25479;SDS011;13393;49.378;8.686;2023-02-28T14:15:34;9.00;;;7.50;;
25479;SDS011;13393;49.378;8.686;2023-02-28T14:18:02;8.32;;;7.32;;
25479;SDS011;13393;49.378;8.686;2023-02-28T14:20:29;8.95;;;6.85;;
25479;SDS011;13393;49.378;8.686;2023-02-28T14:23:00;8.77;;;7.88;;
25479;SDS011;13393;49.378;8.686;2023-02-28T14:25:31;8.52;;;7.72;;
25479;SDS011;13393;49.378;8.686;2023-02-28T14:28:03;9.25;;;7.47;;
25479;SDS011;13393;49.378;8.686;2023-02-28T14:33:19;8.13;;;7.32;;
25479;SDS011;13393;49.378;8.686;2023-02-28T14:35:52;9.13;;;6.80;;
25479;SDS011;13393;49.378;8.686;2023-02-28T14:38:23;9.20;;;7.15;;
25479;SDS011;13393;49.378;8.686;2023-02-28T14:40:50;7.85;;;7.00;;
25479;SDS011;13393;49.378;8.686;2023-02-28T14:43:20;8.00;;;6.70;;
25479;SDS011;13393;49.378;8.686;2023-02-28T14:45:49;9.43;;;7.18;;
25479;SDS011;13393;49.378;8.686;2023-02-28T14:48:16;8.30;;;6.70;;
25479;SDS011;13393;49.378;8.686;2023-02-28T14:50:48;7.88;;;7.07;;
25479;SDS011;13393;49.378;8.686;2023-02-28T14:53:15;7.78;;;6.53;;
25479;SDS011;13393;49.378;8.686;2023-02-28T14:55:45;9.90;;;7.13;;
25479;SDS011;13393;49.378;8.686;2023-02-28T14:58:19;8.70;;;6.80;;
25479;SDS011;13393;49.378;8.686;2023-02-28T15:00:48;7.47;;;6.50;;
25479;SDS011;13393;49.378;8.686;2023-02-28T15:03:17;7.82;;;6.90;;
25479;SDS011;13393;49.378;8.686;2023-02-28T15:05:51;7.10;;;6.10;;
25479;SDS011;13393;49.378;8.686;2023-02-28T15:08:17;7.88;;;5.97;;
25479;SDS011;13393;49.378;8.686;2023-02-28T15:10:50;7.53;;;6.80;;
25479;SDS011;13393;49.378;8.686;2023-02-28T15:13:16;8.88;;;6.50;;